createdAt,value
2018-09-14T00:00:55.699Z,19.83
2018-09-14T00:03:23.964Z,20.23
2018-09-14T00:05:52.239Z,20.27
2018-09-14T00:08:20.517Z,20.17
2018-09-14T00:10:48.784Z,20.57
2018-09-14T00:13:17.385Z,20.23
2018-09-14T00:15:45.647Z,20.80
2018-09-14T00:18:13.936Z,20.83
2018-09-14T00:20:42.223Z,20.57
2018-09-14T00:23:10.480Z,21.07
2018-09-14T00:25:38.750Z,20.77
2018-09-14T00:28:07.034Z,21.13
2018-09-14T00:30:35.290Z,21.17
2018-09-14T00:33:03.549Z,20.30
2018-09-14T00:35:31.830Z,21.10
2018-09-14T00:38:00.115Z,20.23
2018-09-14T00:40:28.375Z,20.93
2018-09-14T00:42:56.637Z,20.03
2018-09-14T00:45:24.877Z,20.17
2018-09-14T00:47:53.514Z,20.60
2018-09-14T00:50:21.767Z,19.60
2018-09-14T00:52:50.034Z,19.80
2018-09-14T00:55:19.077Z,17.17
2018-09-14T00:57:47.403Z,18.30
2018-09-14T01:00:15.619Z,17.50
2018-09-14T01:02:43.953Z,17.90
2018-09-14T01:05:13.039Z,18.17
2018-09-14T01:07:41.281Z,18.63
2018-09-14T01:10:09.549Z,17.60
2018-09-14T01:12:37.820Z,18.70
2018-09-14T01:15:06.070Z,18.30
2018-09-14T01:17:34.356Z,17.00
2018-09-14T01:20:02.613Z,16.40
2018-09-14T01:22:31.622Z,16.37
2018-09-14T01:24:59.894Z,17.67
2018-09-14T01:27:28.138Z,15.67
2018-09-14T01:29:57.174Z,15.60
2018-09-14T01:32:25.443Z,16.80
2018-09-14T01:34:53.721Z,15.50
2018-09-14T01:37:21.982Z,16.37
2018-09-14T01:39:50.574Z,15.40
2018-09-14T01:42:18.837Z,16.60
2018-09-14T01:44:47.088Z,16.37
2018-09-14T01:47:16.401Z,15.40
2018-09-14T01:49:44.623Z,17.53
2018-09-14T01:52:12.873Z,17.87
2018-09-14T01:54:41.154Z,16.67
2018-09-14T01:57:09.415Z,17.20
2018-09-14T01:59:37.662Z,17.53
2018-09-14T02:02:06.723Z,17.03
2018-09-14T02:04:34.996Z,16.13
2018-09-14T02:07:03.248Z,16.47
2018-09-14T02:09:31.518Z,16.27
2018-09-14T02:11:59.769Z,14.87
2018-09-14T02:14:28.039Z,14.53
2018-09-14T02:16:57.079Z,15.50
2018-09-14T02:19:25.325Z,15.43
2018-09-14T02:21:53.594Z,14.63
2018-09-14T02:24:21.856Z,14.63
2018-09-14T02:26:50.906Z,14.00
2018-09-14T02:29:19.154Z,13.80
2018-09-14T02:31:47.434Z,13.77
2018-09-14T02:34:15.708Z,14.10
2018-09-14T02:36:43.986Z,13.97
2018-09-14T02:39:12.243Z,13.77
2018-09-14T02:41:40.498Z,13.60
2018-09-14T02:44:09.784Z,13.50
2018-09-14T02:46:38.809Z,12.50
2018-09-14T02:49:07.064Z,13.00
2018-09-14T02:51:36.104Z,13.20
2018-09-14T02:54:04.379Z,12.87
2018-09-14T02:56:32.642Z,13.20
2018-09-14T02:59:00.902Z,12.67
2018-09-14T03:01:29.172Z,12.93
2018-09-14T03:03:57.431Z,13.43
2018-09-14T03:06:26.458Z,13.80
2018-09-14T03:08:54.729Z,13.17
2018-09-14T03:11:23.012Z,13.90
2018-09-14T03:13:51.294Z,14.30
2018-09-14T03:16:19.578Z,13.50
2018-09-14T03:18:47.843Z,12.70
2018-09-14T03:21:16.103Z,14.20
2018-09-14T03:23:44.393Z,13.47
2018-09-14T03:26:12.638Z,13.70
2018-09-14T03:28:40.905Z,13.17
2018-09-14T03:31:09.172Z,12.60
2018-09-14T03:33:38.199Z,12.53
2018-09-14T03:36:06.460Z,11.37
2018-09-14T03:38:34.735Z,11.77
2018-09-14T03:41:03.006Z,11.90
2018-09-14T03:43:31.251Z,11.33
2018-09-14T03:46:00.540Z,11.07
2018-09-14T03:48:28.792Z,10.77
2018-09-14T03:50:57.051Z,11.17
2018-09-14T03:53:25.324Z,11.30
2018-09-14T03:55:53.600Z,11.47
2018-09-14T03:58:21.866Z,11.50
2018-09-14T04:00:50.208Z,13.33
2018-09-14T04:03:18.625Z,15.40
2018-09-14T04:05:46.887Z,17.03
2018-09-14T04:08:15.145Z,17.90
2018-09-14T04:10:44.174Z,16.93
2018-09-14T04:13:12.435Z,16.57
2018-09-14T04:15:40.946Z,17.00
2018-09-14T04:18:09.202Z,14.83
2018-09-14T04:20:37.486Z,15.30
2018-09-14T04:23:05.800Z,14.57
2018-09-14T04:25:34.031Z,14.90
2018-09-14T04:28:02.310Z,15.17
2018-09-14T04:30:30.602Z,15.13
2018-09-14T04:32:58.850Z,14.33
2018-09-14T04:35:27.102Z,14.10
2018-09-14T04:37:55.379Z,13.20
2018-09-14T04:40:24.408Z,13.90
2018-09-14T04:42:52.777Z,14.23
2018-09-14T04:45:21.024Z,14.50
2018-09-14T04:47:49.288Z,14.90
2018-09-14T04:50:18.323Z,14.83
2018-09-14T04:52:46.623Z,14.23
2018-09-14T04:55:14.875Z,14.40
2018-09-14T04:57:43.156Z,13.57
2018-09-14T05:00:11.463Z,13.83
2018-09-14T05:02:39.686Z,13.97
2018-09-14T05:05:07.964Z,13.70
2018-09-14T05:07:36.234Z,14.77
2018-09-14T05:10:04.494Z,13.87
2018-09-14T05:12:32.755Z,13.37
2018-09-14T05:15:01.779Z,13.67
2018-09-14T05:17:30.055Z,13.07
2018-09-14T05:19:58.309Z,14.23
2018-09-14T05:22:26.787Z,14.00
2018-09-14T05:24:55.077Z,13.70
2018-09-14T05:27:23.291Z,14.53
2018-09-14T05:29:51.578Z,14.57
2018-09-14T05:32:19.839Z,14.40
2018-09-14T05:34:48.128Z,14.40
2018-09-14T05:37:17.400Z,13.17
2018-09-14T05:39:45.651Z,13.50
2018-09-14T05:42:14.145Z,13.17
2018-09-14T05:44:42.410Z,12.73
2018-09-14T05:47:10.650Z,13.57
2018-09-14T05:49:39.683Z,12.80
2018-09-14T05:52:08.643Z,13.03
2018-09-14T05:54:38.032Z,13.53
2018-09-14T05:57:06.227Z,13.20
2018-09-14T05:59:34.470Z,13.40
2018-09-14T06:02:02.739Z,12.90
2018-09-14T06:04:30.989Z,13.07
2018-09-14T06:06:59.356Z,12.33
2018-09-14T06:09:27.837Z,12.70
2018-09-14T06:11:56.105Z,11.43
2018-09-14T06:14:24.362Z,11.30
2018-09-14T06:16:52.687Z,11.27
2018-09-14T06:19:20.912Z,12.00
2018-09-14T06:21:49.172Z,11.90
2018-09-14T06:24:18.191Z,11.53
2018-09-14T06:26:46.466Z,11.40
2018-09-14T06:29:14.740Z,10.50
2018-09-14T06:31:43.033Z,10.60
2018-09-14T06:34:11.283Z,11.53
2018-09-14T06:36:39.571Z,10.83
2018-09-14T06:39:07.842Z,10.50
2018-09-14T06:41:36.124Z,10.10
2018-09-14T06:44:04.395Z,10.97
2018-09-14T06:46:32.658Z,11.33
2018-09-14T06:49:00.924Z,11.07
2018-09-14T06:51:29.964Z,11.87
2018-09-14T06:53:58.246Z,11.90
2018-09-14T06:56:26.645Z,11.70
2018-09-14T06:58:54.910Z,12.73
2018-09-14T07:01:23.350Z,12.13
2018-09-14T07:03:52.038Z,12.63
2018-09-14T07:06:20.391Z,12.80
2018-09-14T07:08:49.377Z,12.67
2018-09-14T07:11:18.412Z,13.23
2018-09-14T07:13:46.682Z,12.70
2018-09-14T07:16:14.962Z,11.60
2018-09-14T07:18:43.220Z,12.43
2018-09-14T07:21:11.481Z,11.23
2018-09-14T07:23:39.964Z,12.07
2018-09-14T07:26:08.256Z,11.07
2018-09-14T07:28:37.447Z,11.77
2018-09-14T07:31:05.716Z,11.90
2018-09-14T07:33:34.013Z,10.77
2018-09-14T07:36:02.274Z,10.93
2018-09-14T07:38:30.527Z,11.80
2018-09-14T07:40:58.808Z,11.40
2018-09-14T07:43:27.094Z,10.97
2018-09-14T07:45:55.374Z,11.97
2018-09-14T07:48:23.720Z,11.87
2018-09-14T07:50:51.957Z,11.63
2018-09-14T07:53:20.264Z,11.77
2018-09-14T07:55:48.519Z,12.13
2018-09-14T07:58:16.787Z,11.93
2018-09-14T08:00:45.048Z,11.53
2018-09-14T08:03:13.311Z,11.50
2018-09-14T08:05:41.778Z,11.10
2018-09-14T08:08:10.035Z,10.83
2018-09-14T08:10:38.292Z,12.53
2018-09-14T08:13:07.421Z,11.97
2018-09-14T08:15:35.910Z,12.53
2018-09-14T08:18:04.157Z,11.93
2018-09-14T08:20:32.423Z,12.20
2018-09-14T08:23:01.510Z,11.67
2018-09-14T08:25:29.734Z,12.07
2018-09-14T08:27:57.997Z,11.53
2018-09-14T08:30:26.270Z,11.90
2018-09-14T08:32:54.534Z,11.70
2018-09-14T08:35:22.835Z,12.00
2018-09-14T08:37:51.100Z,12.27
2018-09-14T08:40:19.368Z,11.27
2018-09-14T08:42:47.657Z,11.07
2018-09-14T08:45:15.924Z,11.43
2018-09-14T08:47:44.214Z,11.73
2018-09-14T08:50:12.446Z,11.37
2018-09-14T08:52:41.475Z,11.60
2018-09-14T08:55:09.759Z,10.40
2018-09-14T08:57:38.016Z,12.37
2018-09-14T09:00:06.292Z,11.43
2018-09-14T09:02:34.551Z,11.40
2018-09-14T09:05:02.822Z,11.70
2018-09-14T09:07:31.072Z,11.33
2018-09-14T09:09:59.614Z,11.80
2018-09-14T09:12:27.871Z,11.73
2018-09-14T09:14:56.122Z,11.93
2018-09-14T09:17:24.390Z,12.87
2018-09-14T09:19:53.490Z,12.33
2018-09-14T09:22:21.705Z,11.90
2018-09-14T09:24:49.975Z,12.17
2018-09-14T09:27:18.219Z,11.67
2018-09-14T09:29:46.483Z,12.23
2018-09-14T09:32:15.527Z,12.17
2018-09-14T09:34:44.559Z,12.13
2018-09-14T09:37:12.825Z,12.03
2018-09-14T09:39:41.071Z,12.90
2018-09-14T09:42:09.351Z,12.47
2018-09-14T09:44:37.731Z,12.43
2018-09-14T09:47:06.003Z,12.83
2018-09-14T09:49:34.280Z,12.10
2018-09-14T09:52:02.553Z,11.67
2018-09-14T09:54:30.811Z,13.60
2018-09-14T09:56:59.070Z,14.07
2018-09-14T09:59:27.349Z,13.67
2018-09-14T10:01:55.615Z,13.70
2018-09-14T10:04:23.909Z,14.40
2018-09-14T10:06:52.169Z,13.67
2018-09-14T10:09:20.431Z,13.93
2018-09-14T10:11:49.469Z,14.20
2018-09-14T10:14:17.797Z,15.13
2018-09-14T10:16:46.024Z,14.57
2018-09-14T10:19:15.073Z,15.77
2018-09-14T10:21:43.406Z,15.00
2018-09-14T10:24:12.568Z,15.23
2018-09-14T10:26:40.817Z,14.83
2018-09-14T10:29:09.831Z,14.97
2018-09-14T10:31:38.248Z,15.67
2018-09-14T10:34:06.502Z,15.37
2018-09-14T10:36:34.754Z,14.60
2018-09-14T10:39:03.129Z,15.73
2018-09-14T10:41:31.389Z,15.27
2018-09-14T10:43:59.665Z,15.77
2018-09-14T10:46:27.922Z,16.93
2018-09-14T10:48:57.014Z,15.33
2018-09-14T10:51:25.248Z,15.53
2018-09-14T10:53:53.643Z,15.53
2018-09-14T10:56:21.917Z,14.77
2018-09-14T10:58:50.590Z,16.67
2018-09-14T11:01:18.875Z,15.23
2018-09-14T11:03:47.158Z,15.37
2018-09-14T11:06:15.420Z,14.57
2018-09-14T11:08:43.852Z,16.17
2018-09-14T11:11:12.147Z,17.40
2018-09-14T11:13:40.389Z,15.80
2018-09-14T11:16:09.479Z,15.43
2018-09-14T11:18:38.527Z,15.47
2018-09-14T11:21:06.774Z,14.57
2018-09-14T11:23:35.046Z,15.73
2018-09-14T11:26:03.296Z,15.03
2018-09-14T11:28:32.339Z,16.03
2018-09-14T11:31:00.599Z,15.53
2018-09-14T11:33:28.887Z,16.17
2018-09-14T11:35:57.158Z,16.03
2018-09-14T11:38:25.444Z,17.03
2018-09-14T11:40:53.663Z,17.13
2018-09-14T11:43:22.703Z,18.00
2018-09-14T11:45:50.976Z,16.57
2018-09-14T11:48:19.261Z,16.77
2018-09-14T11:50:47.525Z,18.43
2018-09-14T11:53:15.817Z,17.43
2018-09-14T11:55:44.067Z,18.20
2018-09-14T11:58:12.339Z,16.77
2018-09-14T12:00:41.350Z,16.23
2018-09-14T12:03:09.626Z,16.93
2018-09-14T12:05:37.890Z,15.90
2018-09-14T12:08:06.190Z,15.60
2018-09-14T12:10:34.454Z,15.20
2018-09-14T12:13:02.712Z,14.90
2018-09-14T12:15:30.976Z,15.50
2018-09-14T12:17:59.250Z,16.10
2018-09-14T12:20:27.502Z,15.43
2018-09-14T12:22:56.555Z,17.37
2018-09-14T12:25:24.816Z,16.17
2018-09-14T12:27:53.105Z,17.27
2018-09-14T12:30:21.430Z,16.63
2018-09-14T12:32:50.468Z,15.13
2018-09-14T12:35:18.736Z,16.23
2018-09-14T12:37:47.025Z,16.17
2018-09-14T12:40:15.310Z,15.90
2018-09-14T12:42:43.590Z,17.53
2018-09-14T12:45:11.864Z,17.90
2018-09-14T12:47:40.836Z,16.83
2018-09-14T12:50:09.988Z,17.40
2018-09-14T12:52:39.031Z,15.83
2018-09-14T12:55:07.313Z,14.07
2018-09-14T12:57:35.571Z,13.70
2018-09-14T13:00:03.853Z,14.20
2018-09-14T13:02:32.108Z,12.53
2018-09-14T13:05:00.395Z,12.30
2018-09-14T13:07:28.660Z,11.83
2018-09-14T13:09:56.952Z,11.40
2018-09-14T13:12:25.233Z,9.83
2018-09-14T13:14:53.546Z,9.73
2018-09-14T13:17:22.581Z,9.33
2018-09-14T13:19:50.866Z,10.10
2018-09-14T13:22:19.114Z,9.90
2018-09-14T13:24:47.378Z,9.97
2018-09-14T13:27:16.395Z,9.23
2018-09-14T13:29:44.662Z,7.63
2018-09-14T13:32:12.937Z,7.33
2018-09-14T13:34:41.960Z,6.10
2018-09-14T13:37:10.235Z,7.37
2018-09-14T13:39:38.476Z,6.70
2018-09-14T13:42:06.790Z,7.33
2018-09-14T13:44:35.066Z,7.40
2018-09-14T13:47:03.331Z,7.03
2018-09-14T13:49:31.743Z,7.80
2018-09-14T13:51:59.988Z,7.10
2018-09-14T13:54:28.234Z,7.93
2018-09-14T13:56:56.498Z,6.83
2018-09-14T13:59:25.535Z,7.10
2018-09-14T14:01:53.787Z,6.93
2018-09-14T14:04:22.080Z,6.40
2018-09-14T14:06:50.304Z,6.83
2018-09-14T14:09:19.350Z,7.00
2018-09-14T14:11:47.619Z,6.87
2018-09-14T14:14:15.925Z,7.23
2018-09-14T14:16:44.244Z,7.57
2018-09-14T14:19:32.576Z,7.13
2018-09-14T14:22:00.822Z,7.13
2018-09-14T14:24:29.103Z,6.97
2018-09-14T14:26:57.349Z,6.63
2018-09-14T14:29:25.632Z,5.90
2018-09-14T14:31:53.899Z,4.67
2018-09-14T14:34:22.341Z,5.40
2018-09-14T14:36:50.611Z,4.70
2018-09-14T14:39:19.616Z,5.30
2018-09-14T14:41:48.953Z,4.27
2018-09-14T14:44:17.188Z,4.37
2018-09-14T14:46:45.451Z,4.50
2018-09-14T14:49:14.457Z,4.40
2018-09-14T14:51:42.725Z,4.20
2018-09-14T14:54:11.006Z,3.60
2018-09-14T14:56:40.038Z,3.97
2018-09-14T14:59:08.306Z,3.70
2018-09-14T15:01:36.549Z,3.73
2018-09-14T15:04:04.915Z,3.73
2018-09-14T15:06:33.943Z,3.17
2018-09-14T15:09:02.185Z,3.80
2018-09-14T15:11:32.325Z,3.33
2018-09-14T15:14:00.581Z,3.97
2018-09-14T15:16:29.582Z,3.87
2018-09-14T15:18:57.871Z,3.90
2018-09-14T15:21:26.154Z,3.30
2018-09-14T15:23:54.404Z,3.50
2018-09-14T15:26:22.650Z,3.60
2018-09-14T15:28:51.691Z,4.07
2018-09-14T15:31:19.929Z,5.10
2018-09-14T15:33:48.975Z,4.70
2018-09-14T15:36:17.422Z,3.73
2018-09-14T15:38:45.676Z,3.77
2018-09-14T15:41:14.716Z,4.30
2018-09-14T15:43:43.006Z,3.80
2018-09-14T15:46:11.218Z,3.73
2018-09-14T15:48:40.244Z,3.43
2018-09-14T15:51:08.482Z,3.83
2018-09-14T15:53:37.502Z,3.80
2018-09-14T15:56:05.810Z,3.00
2018-09-14T15:58:34.103Z,3.10
2018-09-14T16:01:02.403Z,2.80
2018-09-14T16:03:31.419Z,3.00
2018-09-14T16:05:59.713Z,3.30
2018-09-14T16:08:27.946Z,2.87
2018-09-14T16:10:59.533Z,3.10
2018-09-14T16:13:27.840Z,3.13
2018-09-14T16:15:56.058Z,2.90
2018-09-14T16:18:24.313Z,3.10
2018-09-14T16:20:52.567Z,3.00
2018-09-14T16:23:20.824Z,3.03
2018-09-14T16:25:49.079Z,3.40
2018-09-14T16:28:17.567Z,3.10
2018-09-14T16:30:45.943Z,3.17
2018-09-14T16:33:14.198Z,3.00
2018-09-14T16:35:42.460Z,3.60
2018-09-14T16:38:11.487Z,3.37
2018-09-14T16:40:39.737Z,3.40
2018-09-14T16:43:08.746Z,3.60
2018-09-14T16:45:37.149Z,3.13
2018-09-14T16:48:05.382Z,3.27
2018-09-14T16:50:33.665Z,3.10
2018-09-14T16:53:01.959Z,3.70
2018-09-14T16:55:30.190Z,3.37
2018-09-14T16:57:59.216Z,3.33
2018-09-14T17:00:27.471Z,3.00
2018-09-14T17:02:55.863Z,3.10
2018-09-14T17:05:24.116Z,3.30
2018-09-14T17:07:53.205Z,3.00
2018-09-14T17:10:22.750Z,3.43
2018-09-14T17:12:51.002Z,3.67
2018-09-14T17:15:19.397Z,3.40
2018-09-14T17:17:47.679Z,3.57
2018-09-14T17:20:16.111Z,3.80
2018-09-14T17:22:44.493Z,3.20
2018-09-14T17:25:12.727Z,3.10
2018-09-14T17:27:41.013Z,3.37
2018-09-14T17:30:09.250Z,3.10
2018-09-14T17:32:37.533Z,3.20
2018-09-14T17:35:05.882Z,3.00
2018-09-14T17:37:34.924Z,3.20
2018-09-14T17:40:03.158Z,3.30
2018-09-14T17:42:31.429Z,3.27
2018-09-14T17:45:00.447Z,2.73
2018-09-14T17:47:28.717Z,3.20
2018-09-14T17:49:56.977Z,3.40
2018-09-14T17:52:25.241Z,3.20
2018-09-14T17:54:54.329Z,3.33
2018-09-14T17:57:22.598Z,3.47
2018-09-14T17:59:51.629Z,3.03
2018-09-14T18:02:20.211Z,3.40
2018-09-14T18:04:48.458Z,3.40
2018-09-14T18:07:17.468Z,3.33
2018-09-14T18:09:45.760Z,3.63
2018-09-14T18:12:14.035Z,3.40
2018-09-14T18:14:42.784Z,3.53
2018-09-14T18:17:11.825Z,3.67
2018-09-14T18:19:40.094Z,3.63
2018-09-14T18:22:08.414Z,3.50
2018-09-14T18:24:36.693Z,3.73
2018-09-14T18:27:04.934Z,3.63
2018-09-14T18:29:33.154Z,4.00
2018-09-14T18:32:02.196Z,3.97
2018-09-14T18:34:30.455Z,3.73
2018-09-14T18:36:58.710Z,3.73
2018-09-14T18:39:27.003Z,3.97
2018-09-14T18:41:55.286Z,3.93
2018-09-14T18:44:23.538Z,3.73
2018-09-14T18:46:51.851Z,3.70
2018-09-14T18:49:20.851Z,3.80
2018-09-14T18:51:49.107Z,3.60
2018-09-14T18:54:17.615Z,3.53
2018-09-14T18:56:46.554Z,3.67
2018-09-14T18:59:14.798Z,3.80
2018-09-14T19:01:43.243Z,3.70
2018-09-14T19:04:11.498Z,3.57
2018-09-14T19:06:39.789Z,3.60
2018-09-14T19:09:08.067Z,3.83
2018-09-14T19:11:36.346Z,3.60
2018-09-14T19:14:04.589Z,3.83
2018-09-14T19:16:32.863Z,3.73
2018-09-14T19:19:01.150Z,3.83
2018-09-14T19:21:29.394Z,3.70
2018-09-14T19:23:58.442Z,3.53
2018-09-14T19:26:26.688Z,4.33
2018-09-14T19:28:54.988Z,3.80
2018-09-14T19:31:23.224Z,3.70
2018-09-14T19:33:52.801Z,3.40
2018-09-14T19:36:21.067Z,4.20
2018-09-14T19:38:49.336Z,4.20
2018-09-14T19:41:17.595Z,4.43
2018-09-14T19:43:45.853Z,4.03
2018-09-14T19:46:14.092Z,3.90
2018-09-14T19:48:43.098Z,3.83
2018-09-14T19:51:11.452Z,3.60
2018-09-14T19:53:39.685Z,3.80
2018-09-14T19:56:07.932Z,3.80
2018-09-14T19:58:36.252Z,3.80
2018-09-14T20:01:04.532Z,3.73
2018-09-14T20:03:32.935Z,3.90
2018-09-14T20:06:01.977Z,4.03
2018-09-14T20:08:30.199Z,3.80
2018-09-14T20:10:59.235Z,3.93
2018-09-14T20:13:27.518Z,3.83
2018-09-14T20:15:55.736Z,4.40
2018-09-14T20:18:25.147Z,3.30
2018-09-14T20:20:53.342Z,3.60
2018-09-14T20:23:21.580Z,3.77
2018-09-14T20:25:49.866Z,3.80
2018-09-14T20:28:19.153Z,4.40
2018-09-14T20:33:22.374Z,5.07
2018-09-14T20:35:51.396Z,4.27
2018-09-14T20:38:19.702Z,4.70
2018-09-14T20:40:47.941Z,4.77
2018-09-14T20:43:16.203Z,4.70
2018-09-14T20:45:45.232Z,4.63
2018-09-14T20:48:13.470Z,4.80
2018-09-14T20:50:42.498Z,4.57
2018-09-14T20:53:10.819Z,4.80
2018-09-14T20:55:39.166Z,4.83
2018-09-14T20:58:07.482Z,4.87
2018-09-14T21:00:35.663Z,4.37
2018-09-14T21:03:04.269Z,4.77
2018-09-14T21:05:32.515Z,5.43
2018-09-14T21:08:01.527Z,4.83
2018-09-14T21:10:29.790Z,4.60
2018-09-14T21:12:58.150Z,4.37
2018-09-14T21:15:27.388Z,5.10
2018-09-14T21:17:55.646Z,5.07
2018-09-14T21:20:23.886Z,4.93
2018-09-14T21:22:52.154Z,4.57
2018-09-14T21:25:20.409Z,4.63
2018-09-14T21:27:48.664Z,5.43
2018-09-14T21:30:16.921Z,4.93
2018-09-14T21:32:45.354Z,5.30
2018-09-14T21:35:13.590Z,5.17
2018-09-14T21:37:41.845Z,5.10
2018-09-14T21:40:10.113Z,4.80
2018-09-14T21:42:39.119Z,5.10
2018-09-14T21:45:07.379Z,5.27
2018-09-14T21:47:36.423Z,5.60
2018-09-14T21:50:04.682Z,5.40
2018-09-14T21:52:32.922Z,5.80
2018-09-14T21:55:01.184Z,5.77
2018-09-14T21:57:29.440Z,5.87
2018-09-14T21:59:57.688Z,5.10
2018-09-14T22:02:25.953Z,5.60
2018-09-14T22:04:54.188Z,6.20
2018-09-14T22:07:23.222Z,5.77
2018-09-14T22:09:51.464Z,5.73
2018-09-14T22:12:20.730Z,5.87
2018-09-14T22:14:48.974Z,6.10
2018-09-14T22:17:17.239Z,6.33
2018-09-14T22:19:45.490Z,6.23
2018-09-14T22:22:14.524Z,6.90
2018-09-14T22:24:42.758Z,5.83
2018-09-14T22:27:11.877Z,5.70
2018-09-14T22:29:40.463Z,5.80
2018-09-14T22:32:08.789Z,6.20
2018-09-14T22:34:36.992Z,6.17
2018-09-14T22:37:05.266Z,6.10
2018-09-14T22:39:33.519Z,6.47
2018-09-14T22:42:02.530Z,5.93
2018-09-14T22:44:31.145Z,5.87
2018-09-14T22:46:59.383Z,5.40
2018-09-14T22:49:28.403Z,6.30
2018-09-14T22:51:56.670Z,6.60
2018-09-14T22:54:24.947Z,5.97
2018-09-14T22:56:53.202Z,6.20
2018-09-14T22:59:22.247Z,6.10
2018-09-14T23:01:50.497Z,6.53
2018-09-14T23:04:18.771Z,6.90
2018-09-14T23:06:47.023Z,6.63
2018-09-14T23:09:15.323Z,7.27
2018-09-14T23:11:43.562Z,7.33
2018-09-14T23:14:12.577Z,6.90
2018-09-14T23:16:40.867Z,6.43
2018-09-14T23:19:09.134Z,6.40
2018-09-14T23:21:37.379Z,6.60
2018-09-14T23:24:06.390Z,7.03
2018-09-14T23:26:34.708Z,6.77
2018-09-14T23:29:02.950Z,6.80
2018-09-14T23:31:31.181Z,7.83
2018-09-14T23:33:59.440Z,7.00
2018-09-14T23:36:27.695Z,6.77
2018-09-14T23:38:56.001Z,8.00
2018-09-14T23:41:24.512Z,6.60
2018-09-14T23:43:53.305Z,6.60
2018-09-14T23:46:21.571Z,6.57
2018-09-14T23:48:50.599Z,6.90
2018-09-14T23:51:18.863Z,6.77
2018-09-14T23:53:47.441Z,7.10
2018-09-14T23:56:15.686Z,6.67
2018-09-14T23:58:44.694Z,6.57
